Time;durP1;ratioP1;P1;durP2;ratioP2;P2;SDS_P1;SDS_P2;PMS_P1;PMS_P2;Temp;Humidity;BMP_temperature;BMP_pressure;BME280_temperature;BME280_humidity;BME280_pressure;Samples;Min_cycle;Max_cycle;Signal;HPM_P1;HPM_P2
2022/02/26 00:00:44;;;;;;;4.95;2.50;;;2.50;99.90;;;;;;4999945;28;20517;-61
2022/02/26 00:03:11;;;;;;;5.93;3.30;;;2.50;99.90;;;;;;5000893;28;20091;-61
2022/02/26 00:05:40;;;;;;;6.50;3.28;;;2.50;99.90;;;;;;5001346;28;20482;-61
2022/02/26 00:08:07;;;;;;;6.13;3.30;;;2.60;99.90;;;;;;5001857;28;20081;-61
2022/02/26 00:10:35;;;;;;;4.25;2.53;;;2.60;99.90;;;;;;5000876;28;20127;-61
2022/02/26 00:13:02;;;;;;;4.85;2.90;;;2.60;99.90;;;;;;4999696;28;20081;-61
2022/02/26 00:15:29;;;;;;;5.25;2.88;;;2.50;99.90;;;;;;4999445;28;20468;-61
2022/02/26 00:17:56;;;;;;;4.75;2.97;;;2.50;99.90;;;;;;5001569;28;20058;-61
2022/02/26 00:20:23;;;;;;;4.85;2.80;;;2.50;99.90;;;;;;4999455;28;20129;-61
2022/02/26 00:22:49;;;;;;;5.25;2.78;;;2.50;99.90;;;;;;5000029;28;20145;-60
2022/02/26 00:25:16;;;;;;;6.65;2.80;;;2.40;99.90;;;;;;4999799;28;20129;-61
2022/02/26 00:27:43;;;;;;;4.30;2.47;;;2.40;99.90;;;;;;5001147;28;20568;-61
2022/02/26 00:30:10;;;;;;;3.83;2.67;;;2.40;99.90;;;;;;5001532;28;20137;-61
2022/02/26 00:32:37;;;;;;;6.82;2.78;;;2.40;99.90;;;;;;5005013;28;20145;-61
2022/02/26 00:35:04;;;;;;;5.18;2.97;;;2.40;99.90;;;;;;5004565;28;20081;-62
2022/02/26 00:37:31;;;;;;;4.07;2.58;;;2.40;99.90;;;;;;5004607;28;20096;-61
2022/02/26 00:39:58;;;;;;;5.22;2.92;;;2.40;99.90;;;;;;5003852;28;20157;-61
2022/02/26 00:42:24;;;;;;;4.30;2.47;;;2.40;99.90;;;;;;5003586;28;20100;-61
2022/02/26 00:44:51;;;;;;;5.20;2.72;;;2.30;99.90;;;;;;5002403;28;20471;-61
2022/02/26 00:47:18;;;;;;;6.05;2.97;;;2.30;99.90;;;;;;5004734;28;20324;-62
2022/02/26 00:49:47;;;;;;;4.45;2.30;;;2.20;99.90;;;;;;5003884;28;20064;-61
2022/02/26 00:52:15;;;;;;;5.43;2.42;;;2.20;99.90;;;;;;5004357;28;20138;-60
2022/02/26 00:54:41;;;;;;;4.35;2.75;;;2.20;99.90;;;;;;5002897;28;20100;-61
2022/02/26 00:57:08;;;;;;;5.20;2.47;;;2.20;99.90;;;;;;5004715;28;20411;-61
2022/02/26 00:59:35;;;;;;;4.72;2.70;;;2.20;99.90;;;;;;4994615;28;20095;-61
2022/02/26 01:02:02;;;;;;;3.55;2.15;;;2.20;99.90;;;;;;4982663;28;20143;-61
2022/02/26 01:04:33;;;;;;;4.10;2.40;;;2.20;99.90;;;;;;4985543;28;20152;-61
2022/02/26 01:07:00;;;;;;;5.30;2.90;;;2.20;99.90;;;;;;5002962;28;20101;-61
2022/02/26 01:09:27;;;;;;;3.22;2.10;;;2.20;99.90;;;;;;5003025;28;20157;-61
2022/02/26 01:11:54;;;;;;;4.50;2.55;;;2.10;99.90;;;;;;5003903;28;20152;-62
2022/02/26 01:14:21;;;;;;;5.78;2.80;;;2.10;99.90;;;;;;5001640;28;20081;-61
2022/02/26 01:16:47;;;;;;;4.43;2.95;;;2.10;99.90;;;;;;4986357;28;20137;-61
2022/02/26 01:19:14;;;;;;;3.67;2.42;;;2.10;99.90;;;;;;5003004;28;20466;-60
2022/02/26 01:21:43;;;;;;;4.60;2.60;;;2.10;99.90;;;;;;5003902;28;20085;-61
2022/02/26 01:24:11;;;;;;;4.95;2.40;;;2.10;99.90;;;;;;5002682;28;20132;-61
2022/02/26 01:26:38;;;;;;;4.00;2.38;;;2.10;99.90;;;;;;5002553;28;20160;-61
2022/02/26 01:29:05;;;;;;;3.20;2.50;;;2.10;99.90;;;;;;5001217;28;20156;-61
2022/02/26 01:31:33;;;;;;;5.10;2.22;;;2.10;99.90;;;;;;5003254;28;20580;-61
2022/02/26 01:34:00;;;;;;;4.60;2.50;;;2.00;99.90;;;;;;5000045;28;20064;-61
2022/02/26 01:36:27;;;;;;;9.30;2.97;;;2.00;99.90;;;;;;5002918;28;20142;-60
2022/02/26 01:38:54;;;;;;;3.92;2.45;;;2.00;99.90;;;;;;5002308;28;20612;-61
2022/02/26 01:41:21;;;;;;;3.63;1.98;;;2.00;99.90;;;;;;5002944;28;20088;-61
2022/02/26 01:43:47;;;;;;;4.15;2.60;;;2.00;99.90;;;;;;5002143;28;20467;-61
2022/02/26 01:46:14;;;;;;;4.40;2.20;;;2.00;99.90;;;;;;5002277;28;20137;-61
2022/02/26 01:48:41;;;;;;;6.03;2.92;;;2.00;99.90;;;;;;5002582;28;20381;-61
2022/02/26 01:51:08;;;;;;;3.92;2.38;;;2.00;99.90;;;;;;5003089;28;20482;-61
2022/02/26 01:53:35;;;;;;;3.95;2.00;;;1.90;99.90;;;;;;5002488;28;20077;-61
2022/02/26 01:56:03;;;;;;;3.95;2.47;;;1.90;99.90;;;;;;5002969;28;20169;-61
2022/02/26 01:58:32;;;;;;;4.70;2.50;;;1.90;99.90;;;;;;5001889;28;20081;-61
2022/02/26 02:00:58;;;;;;;5.45;2.47;;;1.90;99.90;;;;;;5001824;28;20077;-62
2022/02/26 02:03:25;;;;;;;5.00;2.53;;;1.90;99.90;;;;;;5003100;28;20436;-61
2022/02/26 02:05:54;;;;;;;4.93;2.50;;;1.90;99.90;;;;;;5002412;28;20406;-60
2022/02/26 02:08:21;;;;;;;3.47;2.25;;;1.90;99.90;;;;;;5001124;28;20133;-60
2022/02/26 02:10:49;;;;;;;3.97;2.88;;;1.90;99.90;;;;;;5001087;28;20058;-61
2022/02/26 02:13:15;;;;;;;3.20;1.88;;;1.90;99.90;;;;;;5000947;28;20592;-60
2022/02/26 02:15:42;;;;;;;4.70;2.58;;;1.90;99.90;;;;;;4999051;28;20133;-61
2022/02/26 02:18:12;;;;;;;4.18;2.30;;;1.90;99.90;;;;;;5002691;28;20108;-61
2022/02/26 02:20:39;;;;;;;4.45;1.88;;;1.90;99.90;;;;;;5002440;28;20533;-61
2022/02/26 02:23:06;;;;;;;4.65;2.20;;;1.80;99.90;;;;;;5002425;28;20648;-61
2022/02/26 02:25:33;;;;;;;5.50;3.15;;;1.80;99.90;;;;;;5002116;28;20129;-61
2022/02/26 02:28:00;;;;;;;5.30;2.30;;;1.80;99.90;;;;;;5002195;28;20164;-61
2022/02/26 02:30:27;;;;;;;5.57;2.05;;;1.80;99.90;;;;;;5000224;28;20129;-62
2022/02/26 02:32:55;;;;;;;4.63;2.10;;;1.80;99.90;;;;;;4999035;28;20172;-61
2022/02/26 02:35:26;;;;;;;3.95;2.10;;;1.80;99.90;;;;;;4995653;28;20073;-62
2022/02/26 02:37:54;;;;;;;5.35;2.70;;;1.80;99.90;;;;;;4994634;28;20113;-62
2022/02/26 02:40:22;;;;;;;3.40;2.38;;;1.70;99.90;;;;;;5000779;28;20562;-60
2022/02/26 02:42:49;;;;;;;2.70;1.83;;;1.70;99.90;;;;;;5002236;28;20089;-62
2022/02/26 02:45:16;;;;;;;4.82;2.00;;;1.70;99.90;;;;;;5001223;28;20136;-61
2022/02/26 02:47:42;;;;;;;3.92;2.15;;;1.70;99.90;;;;;;5002710;28;20053;-61
2022/02/26 02:50:09;;;;;;;6.93;2.38;;;1.70;99.90;;;;;;5002580;28;20128;-60
2022/02/26 02:52:36;;;;;;;5.15;2.35;;;1.70;99.90;;;;;;5005714;28;20669;-61
2022/02/26 02:55:03;;;;;;;3.85;2.08;;;1.70;99.90;;;;;;5000030;28;20085;-61
2022/02/26 02:57:30;;;;;;;3.70;2.17;;;1.70;99.90;;;;;;5004244;28;20410;-62
2022/02/26 02:59:57;;;;;;;2.80;1.48;;;1.70;99.90;;;;;;5000046;28;20142;-61
2022/02/26 03:02:23;;;;;;;3.65;2.22;;;1.70;99.90;;;;;;5003734;28;20064;-60
2022/02/26 03:04:50;;;;;;;4.80;2.30;;;1.60;99.90;;;;;;5002096;28;20513;-61
2022/02/26 03:07:18;;;;;;;3.47;2.25;;;1.60;99.90;;;;;;5002201;28;20133;-61
2022/02/26 03:09:45;;;;;;;3.83;2.15;;;1.60;99.90;;;;;;5001641;28;20129;-61
2022/02/26 03:12:12;;;;;;;4.25;2.30;;;1.60;99.90;;;;;;5002183;28;20452;-61
2022/02/26 03:14:39;;;;;;;2.72;1.80;;;1.60;99.90;;;;;;5000296;28;20129;-61
2022/02/26 03:17:05;;;;;;;4.65;2.08;;;1.50;99.90;;;;;;5003034;28;20080;-61
2022/02/26 03:19:32;;;;;;;3.00;2.03;;;1.60;99.90;;;;;;5002709;28;20490;-61
2022/02/26 03:21:59;;;;;;;3.13;2.00;;;1.60;99.90;;;;;;5003517;28;20045;-61
2022/02/26 03:24:26;;;;;;;3.70;1.65;;;1.50;99.90;;;;;;5001793;28;20096;-62
2022/02/26 03:26:56;;;;;;;4.65;1.80;;;1.50;99.90;;;;;;5001458;28;20057;-61
2022/02/26 03:29:24;;;;;;;3.63;1.70;;;1.50;99.90;;;;;;5000445;28;20073;-62
2022/02/26 03:31:51;;;;;;;3.63;2.00;;;1.40;99.90;;;;;;5002841;28;20118;-61
2022/02/26 03:34:19;;;;;;;4.32;1.95;;;1.50;99.90;;;;;;5001857;28;20133;-61
2022/02/26 03:36:51;;;;;;;2.88;1.77;;;1.40;99.90;;;;;;5018886;28;20515;-61
2022/02/26 03:39:18;;;;;;;2.42;1.50;;;1.40;99.90;;;;;;5020354;28;20161;-61
2022/02/26 03:41:45;;;;;;;4.13;1.70;;;1.40;99.90;;;;;;5021384;28;20080;-61
2022/02/26 03:44:11;;;;;;;3.22;1.65;;;1.40;99.90;;;;;;4997214;28;20142;-61
2022/02/26 03:46:39;;;;;;;2.70;1.70;;;1.40;99.90;;;;;;5002658;28;20358;-61
2022/02/26 03:49:06;;;;;;;4.40;2.22;;;1.40;99.90;;;;;;5005207;28;20045;-62
2022/02/26 03:51:33;;;;;;;2.63;1.80;;;1.30;99.90;;;;;;5017979;28;20520;-61
2022/02/26 03:54:00;;;;;;;2.85;1.70;;;1.30;99.90;;;;;;4997705;28;20089;-61
2022/02/26 03:56:27;;;;;;;4.10;1.73;;;1.30;99.90;;;;;;5002784;28;20081;-62
2022/02/26 03:58:55;;;;;;;3.65;1.50;;;1.30;99.90;;;;;;5000959;28;20050;-61
2022/02/26 04:01:22;;;;;;;3.95;1.75;;;1.30;99.90;;;;;;4984086;28;20153;-60
2022/02/26 04:03:49;;;;;;;4.47;1.95;;;1.30;99.90;;;;;;5010308;28;20053;-61
2022/02/26 04:06:16;;;;;;;3.67;1.60;;;1.20;99.90;;;;;;5006255;28;20077;-62
2022/02/26 04:08:42;;;;;;;5.65;1.92;;;1.20;99.90;;;;;;5006153;28;20080;-61
2022/02/26 04:11:09;;;;;;;2.65;1.65;;;1.20;99.90;;;;;;5006669;28;20533;-62
2022/02/26 04:13:36;;;;;;;3.53;2.28;;;1.20;99.90;;;;;;5004935;28;20103;-62
2022/02/26 04:16:03;;;;;;;3.42;1.70;;;1.30;99.90;;;;;;5005135;28;20833;-61
2022/02/26 04:18:30;;;;;;;4.43;1.50;;;1.30;99.90;;;;;;5005889;28;20560;-61
2022/02/26 04:20:57;;;;;;;3.42;1.70;;;1.30;99.90;;;;;;5005840;28;20121;-61
2022/02/26 04:23:24;;;;;;;3.83;1.60;;;1.30;99.90;;;;;;5005400;28;20128;-61
2022/02/26 04:25:50;;;;;;;3.08;1.95;;;1.20;99.90;;;;;;5005016;28;20085;-62
2022/02/26 04:28:17;;;;;;;2.55;1.35;;;1.20;99.90;;;;;;5005341;28;20046;-62
2022/02/26 04:30:44;;;;;;;3.33;1.60;;;1.20;99.90;;;;;;5004712;28;20129;-60
2022/02/26 04:33:12;;;;;;;3.22;1.90;;;1.20;99.90;;;;;;5005318;28;20058;-60
2022/02/26 04:35:38;;;;;;;4.70;1.70;;;1.20;99.90;;;;;;5004650;28;20054;-61
2022/02/26 04:38:05;;;;;;;2.08;1.55;;;1.10;99.90;;;;;;5005504;28;20089;-61
2022/02/26 04:40:32;;;;;;;2.63;1.40;;;1.10;99.90;;;;;;5005371;28;20081;-62
2022/02/26 04:42:59;;;;;;;3.05;1.77;;;1.00;99.90;;;;;;5005462;28;20438;-62
2022/02/26 04:45:26;;;;;;;3.63;1.65;;;1.00;99.90;;;;;;5003349;28;20779;-61
2022/02/26 04:47:54;;;;;;;2.38;1.30;;;1.00;99.90;;;;;;5005354;28;20079;-61
2022/02/26 04:50:20;;;;;;;3.70;1.73;;;1.10;99.90;;;;;;5004332;28;20532;-62
2022/02/26 04:52:47;;;;;;;2.35;1.30;;;1.00;99.90;;;;;;5005462;28;20050;-62
2022/02/26 04:55:14;;;;;;;2.30;1.48;;;1.00;99.90;;;;;;5004247;28;20053;-61
2022/02/26 04:57:41;;;;;;;1.50;1.30;;;1.00;99.90;;;;;;5005214;28;20053;-62
2022/02/26 05:00:09;;;;;;;2.30;1.38;;;1.10;99.90;;;;;;5021924;28;20121;-62
2022/02/26 05:02:36;;;;;;;2.40;1.25;;;1.10;99.90;;;;;;5021879;28;20124;-62
2022/02/26 05:05:04;;;;;;;2.42;1.33;;;1.10;99.90;;;;;;5005188;28;20116;-62
2022/02/26 05:07:30;;;;;;;2.80;1.38;;;1.10;99.90;;;;;;5005364;28;20153;-61
2022/02/26 05:10:00;;;;;;;2.65;1.15;;;1.10;99.90;;;;;;5022952;28;20041;-62
2022/02/26 05:12:27;;;;;;;2.45;1.50;;;1.00;99.90;;;;;;5011441;28;20140;-62
2022/02/26 05:14:55;;;;;;;1.90;1.30;;;1.00;99.90;;;;;;5002205;28;20140;-62
2022/02/26 05:17:22;;;;;;;2.35;1.30;;;1.00;99.90;;;;;;5004783;28;20636;-61
2022/02/26 05:19:49;;;;;;;2.33;1.35;;;1.00;99.90;;;;;;5004599;28;20148;-60
2022/02/26 05:22:15;;;;;;;1.73;1.27;;;1.00;99.90;;;;;;5005061;28;20463;-62
2022/02/26 05:24:42;;;;;;;1.60;1.00;;;1.00;99.90;;;;;;5003840;28;20136;-62
2022/02/26 05:27:09;;;;;;;2.50;1.50;;;1.00;99.90;;;;;;5004739;28;20042;-62
2022/02/26 05:29:36;;;;;;;3.45;1.13;;;1.00;99.90;;;;;;5017567;28;20597;-61
2022/02/26 05:32:03;;;;;;;2.20;0.90;;;1.00;99.90;;;;;;5004398;28;20136;-60
2022/02/26 05:34:30;;;;;;;1.40;1.00;;;1.00;99.90;;;;;;5014327;28;20534;-61
2022/02/26 05:36:57;;;;;;;2.42;0.98;;;1.00;99.90;;;;;;5003117;28;20561;-62
2022/02/26 05:39:24;;;;;;;2.42;1.10;;;1.00;99.90;;;;;;5013241;28;20145;-62
2022/02/26 05:41:50;;;;;;;2.63;1.42;;;1.00;99.90;;;;;;5004345;28;20081;-62
2022/02/26 05:44:17;;;;;;;2.75;1.30;;;1.00;99.90;;;;;;5001865;28;20169;-62
2022/02/26 05:46:44;;;;;;;2.42;1.35;;;1.00;99.90;;;;;;5003944;28;20180;-61
2022/02/26 05:49:11;;;;;;;3.05;1.23;;;1.00;99.90;;;;;;5003685;28;20152;-62
2022/02/26 05:51:37;;;;;;;3.65;1.50;;;1.00;99.90;;;;;;5007781;28;20074;-61
2022/02/26 05:54:04;;;;;;;2.85;1.27;;;0.90;99.90;;;;;;5011035;28;20140;-62
2022/02/26 05:56:31;;;;;;;4.28;1.35;;;0.90;99.90;;;;;;5007890;28;20049;-61
2022/02/26 05:58:58;;;;;;;3.47;1.20;;;0.90;99.90;;;;;;5002044;28;20478;-61
2022/02/26 06:01:24;;;;;;;2.30;1.20;;;0.90;99.90;;;;;;5004355;28;20085;-62
2022/02/26 06:03:51;;;;;;;3.47;1.02;;;0.90;99.90;;;;;;4999888;28;20058;-61
2022/02/26 06:06:18;;;;;;;2.97;1.05;;;0.90;99.90;;;;;;5001690;28;20142;-62
2022/02/26 06:08:45;;;;;;;2.83;1.08;;;0.90;99.90;;;;;;5010869;28;20139;-61
2022/02/26 06:11:12;;;;;;;2.60;1.10;;;0.90;99.90;;;;;;5001802;28;20575;-61
2022/02/26 06:13:38;;;;;;;2.30;1.27;;;0.90;99.90;;;;;;5000377;28;20227;-60
2022/02/26 06:16:05;;;;;;;2.13;1.17;;;0.80;99.90;;;;;;5001975;28;20129;-61
2022/02/26 06:18:32;;;;;;;1.67;1.00;;;0.80;99.90;;;;;;5001737;28;20743;-62
2022/02/26 06:20:59;;;;;;;3.55;1.05;;;0.90;99.90;;;;;;5001740;28;20042;-61
2022/02/26 06:23:25;;;;;;;3.58;1.33;;;0.90;99.90;;;;;;5001703;28;20685;-61
2022/02/26 06:25:52;;;;;;;3.45;1.55;;;0.90;99.90;;;;;;5000980;28;20164;-61
2022/02/26 06:28:19;;;;;;;5.53;1.85;;;0.90;99.90;;;;;;5001656;28;20073;-61
2022/02/26 06:30:46;;;;;;;3.30;1.25;;;0.90;99.90;;;;;;5000233;28;20137;-62
2022/02/26 06:33:14;;;;;;;3.10;1.10;;;0.80;99.90;;;;;;5001364;28;20077;-62
2022/02/26 06:35:44;;;;;;;1.90;1.20;;;0.80;99.90;;;;;;5000469;28;20375;-61
2022/02/26 06:38:11;;;;;;;3.55;1.30;;;0.80;99.90;;;;;;5000902;28;20361;-61
2022/02/26 06:40:38;;;;;;;3.25;1.58;;;0.70;99.90;;;;;;5000077;28;20736;-62
2022/02/26 06:43:05;;;;;;;3.65;1.65;;;0.80;99.90;;;;;;4999555;28;20129;-61
2022/02/26 06:45:31;;;;;;;2.63;1.23;;;0.70;99.90;;;;;;4999215;28;20145;-62
2022/02/26 06:47:58;;;;;;;2.60;1.10;;;0.70;99.90;;;;;;5001768;28;20061;-62
2022/02/26 06:50:25;;;;;;;2.08;1.30;;;0.70;99.90;;;;;;5004235;28;20038;-61
2022/02/26 06:52:52;;;;;;;2.00;1.20;;;0.70;99.90;;;;;;5001185;28;20352;-61
2022/02/26 06:55:19;;;;;;;2.00;1.10;;;0.70;99.90;;;;;;5000525;28;20415;-61
2022/02/26 06:57:45;;;;;;;2.03;0.90;;;0.70;99.90;;;;;;5001338;28;20093;-62
2022/02/26 07:00:13;;;;;;;1.88;1.00;;;0.70;99.90;;;;;;4999145;28;20120;-61
2022/02/26 07:02:40;;;;;;;2.00;1.38;;;0.70;99.90;;;;;;5000911;28;20096;-61
2022/02/26 07:05:07;;;;;;;4.15;1.10;;;0.70;99.90;;;;;;5001618;28;20057;-62
2022/02/26 07:07:34;;;;;;;1.92;0.98;;;0.70;99.90;;;;;;5002291;28;20152;-60
2022/02/26 07:10:01;;;;;;;1.52;0.95;;;0.70;99.90;;;;;;5000981;28;20133;-62
2022/02/26 07:12:27;;;;;;;2.83;1.25;;;0.70;99.90;;;;;;5001454;28;20539;-61
2022/02/26 07:14:54;;;;;;;3.20;1.27;;;0.80;99.90;;;;;;4997846;28;20144;-62
2022/02/26 07:17:21;;;;;;;3.03;1.02;;;0.80;99.90;;;;;;5001237;28;20512;-62
2022/02/26 07:19:48;;;;;;;2.10;1.13;;;0.80;99.90;;;;;;4995703;28;20649;-61
2022/02/26 07:22:14;;;;;;;1.70;1.00;;;0.90;99.90;;;;;;4997170;28;20240;-60
2022/02/26 07:24:41;;;;;;;3.10;1.17;;;0.90;99.90;;;;;;4997284;28;20056;-62
2022/02/26 07:27:10;;;;;;;3.22;0.95;;;0.90;99.90;;;;;;4995968;28;20081;-61
2022/02/26 07:29:37;;;;;;;3.55;1.30;;;0.90;99.90;;;;;;5004350;28;20053;-61
2022/02/26 07:32:04;;;;;;;2.03;1.08;;;1.00;99.90;;;;;;5006504;28;20068;-61
2022/02/26 07:34:31;;;;;;;1.83;1.20;;;1.00;99.90;;;;;;5005301;28;20125;-61
2022/02/26 07:36:57;;;;;;;3.42;1.13;;;1.00;99.90;;;;;;4989906;28;20141;-61
2022/02/26 07:39:24;;;;;;;1.75;1.13;;;1.00;99.90;;;;;;4984825;28;20660;-60
2022/02/26 07:41:51;;;;;;;3.40;1.83;;;1.10;99.90;;;;;;5000480;28;20100;-61
2022/02/26 07:44:18;;;;;;;3.75;1.80;;;1.10;99.90;;;;;;4998835;28;20161;-61
2022/02/26 07:46:45;;;;;;;2.88;1.52;;;1.20;99.90;;;;;;5000404;28;20126;-61
2022/02/26 07:49:12;;;;;;;2.38;1.50;;;1.20;99.90;;;;;;5000967;28;20046;-58
2022/02/26 07:51:39;;;;;;;3.50;1.60;;;1.30;99.90;;;;;;5000348;28;20133;-66
2022/02/26 07:54:05;;;;;;;3.28;1.45;;;1.30;99.90;;;;;;5001060;28;20086;-60
2022/02/26 07:56:32;;;;;;;2.53;1.60;;;1.30;99.90;;;;;;5000808;28;20666;-61
2022/02/26 07:58:59;;;;;;;2.63;1.48;;;1.40;99.90;;;;;;5000062;28;20686;-60
2022/02/26 08:01:26;;;;;;;3.53;1.63;;;1.40;99.90;;;;;;5001574;28;20127;-62
2022/02/26 08:03:53;;;;;;;3.03;1.60;;;1.50;99.90;;;;;;4999336;28;20068;-61
2022/02/26 08:06:20;;;;;;;2.53;1.35;;;1.50;99.90;;;;;;4996119;28;20471;-60
2022/02/26 08:08:47;;;;;;;2.47;1.42;;;1.60;99.90;;;;;;5000585;28;20100;-61
2022/02/26 08:11:13;;;;;;;3.85;2.05;;;1.60;99.90;;;;;;4997156;28;20133;-62
2022/02/26 08:13:40;;;;;;;3.95;1.70;;;1.70;99.90;;;;;;4997864;28;21007;-61
2022/02/26 08:16:08;;;;;;;3.53;1.50;;;1.70;99.90;;;;;;4999750;28;20124;-61
2022/02/26 08:18:35;;;;;;;3.08;1.45;;;1.80;99.90;;;;;;4986457;28;20057;-61
2022/02/26 08:21:03;;;;;;;2.80;1.58;;;1.80;99.90;;;;;;5001957;28;20352;-61
2022/02/26 08:23:30;;;;;;;5.05;1.95;;;1.90;99.90;;;;;;4995680;28;20347;-61
2022/02/26 08:25:57;;;;;;;3.08;1.52;;;2.00;99.90;;;;;;4997257;28;20144;-61
2022/02/26 08:28:24;;;;;;;3.33;1.60;;;2.00;99.90;;;;;;4990342;28;20134;-60
2022/02/26 08:30:50;;;;;;;2.88;1.50;;;2.20;99.90;;;;;;4996761;28;20124;-61
2022/02/26 08:33:17;;;;;;;2.95;1.85;;;2.30;99.90;;;;;;5001054;28;20434;-61
2022/02/26 08:35:44;;;;;;;4.53;2.03;;;2.30;99.90;;;;;;5004350;28;20188;-62
2022/02/26 08:38:11;;;;;;;4.32;2.28;;;2.40;99.90;;;;;;4996870;28;20210;-60
2022/02/26 08:40:38;;;;;;;3.97;1.83;;;2.50;99.90;;;;;;4996242;28;20398;-61
2022/02/26 08:43:04;;;;;;;2.92;1.60;;;2.70;99.90;;;;;;5000671;28;20129;-62
2022/02/26 08:45:35;;;;;;;3.35;2.30;;;2.80;99.90;;;;;;5000441;28;20085;-61
2022/02/26 08:48:02;;;;;;;2.58;1.70;;;3.00;99.90;;;;;;5001990;28;20080;-61
2022/02/26 08:50:29;;;;;;;2.75;1.60;;;3.20;99.90;;;;;;4984159;28;20484;-61
2022/02/26 08:52:56;;;;;;;3.10;1.52;;;3.40;99.90;;;;;;4996285;28;20100;-62
2022/02/26 08:55:22;;;;;;;2.45;1.80;;;3.60;99.90;;;;;;5016229;28;20124;-62
2022/02/26 08:57:49;;;;;;;2.67;1.30;;;3.80;99.90;;;;;;5008850;28;20053;-61
2022/02/26 09:00:16;;;;;;;4.13;1.30;;;4.10;99.90;;;;;;4995234;28;20050;-61
2022/02/26 09:02:43;;;;;;;3.50;1.52;;;4.40;99.90;;;;;;4985729;28;20130;-62
2022/02/26 09:05:10;;;;;;;2.92;1.27;;;4.70;99.90;;;;;;4998183;28;20054;-62
2022/02/26 09:07:37;;;;;;;4.70;1.48;;;5.00;99.90;;;;;;5011489;28;20137;-61
2022/02/26 09:10:05;;;;;;;2.30;1.08;;;5.10;99.90;;;;;;5017558;28;20045;-63
2022/02/26 09:12:32;;;;;;;3.40;1.05;;;5.40;99.90;;;;;;4987912;28;20138;-61
2022/02/26 09:14:59;;;;;;;4.28;1.33;;;5.60;99.90;;;;;;5016375;28;20491;-62
2022/02/26 09:17:26;;;;;;;4.22;1.80;;;5.80;99.90;;;;;;5006482;28;20104;-61
2022/02/26 09:19:52;;;;;;;2.97;1.10;;;5.90;99.90;;;;;;5020833;28;20077;-62
2022/02/26 09:22:19;;;;;;;3.08;1.10;;;6.10;99.90;;;;;;5021282;28;20565;-62
2022/02/26 09:24:46;;;;;;;3.40;1.50;;;6.20;99.90;;;;;;4999049;28;20137;-61
2022/02/26 09:27:12;;;;;;;6.35;1.58;;;6.40;99.90;;;;;;5000938;28;20124;-61
2022/02/26 09:29:39;;;;;;;3.42;1.27;;;6.50;99.90;;;;;;5004283;28;20208;-61
2022/02/26 09:32:07;;;;;;;5.15;1.35;;;6.70;99.90;;;;;;5019327;28;20076;-61
2022/02/26 09:34:34;;;;;;;5.05;1.73;;;6.80;99.90;;;;;;5000243;28;20108;-62
2022/02/26 09:37:01;;;;;;;6.32;1.83;;;6.80;99.90;;;;;;5001381;28;20096;-61
2022/02/26 09:39:28;;;;;;;6.03;1.75;;;7.00;99.90;;;;;;4999843;28;20050;-61
2022/02/26 09:41:57;;;;;;;7.10;2.30;;;7.10;99.90;;;;;;5001244;28;20060;-61
2022/02/26 09:44:24;;;;;;;6.15;2.33;;;7.20;99.90;;;;;;4994246;28;20058;-61
2022/02/26 09:46:51;;;;;;;7.97;2.25;;;7.30;99.90;;;;;;4998193;28;20046;-61
2022/02/26 09:49:18;;;;;;;10.00;2.55;;;7.30;99.90;;;;;;4988282;28;20518;-61
2022/02/26 09:51:45;;;;;;;6.43;2.38;;;7.40;99.90;;;;;;5020791;28;20103;-59
2022/02/26 09:54:14;;;;;;;8.02;2.70;;;7.50;99.90;;;;;;5004468;28;20129;-62
2022/02/26 09:56:41;;;;;;;6.40;1.65;;;7.60;99.90;;;;;;4994646;28;20509;-61
2022/02/26 09:59:09;;;;;;;7.55;2.25;;;7.70;99.90;;;;;;4986554;28;20192;-61
2022/02/26 10:01:40;;;;;;;5.22;1.80;;;7.70;99.90;;;;;;4981341;28;20132;-61
2022/02/26 10:04:08;;;;;;;6.10;2.05;;;7.70;99.90;;;;;;4989267;28;20049;-61
2022/02/26 10:06:35;;;;;;;5.32;1.60;;;7.80;99.90;;;;;;5015459;28;20065;-62
2022/02/26 10:09:03;;;;;;;7.35;1.65;;;7.90;99.90;;;;;;5019727;28;20153;-62
2022/02/26 10:11:37;;;;;;;7.40;1.80;;;7.90;99.90;;;;;;4999265;28;20141;-62
2022/02/26 10:14:07;;;;;;;5.88;1.70;;;8.00;99.90;;;;;;4988240;28;20165;-61
2022/02/26 10:16:47;;;;;;;4.47;1.73;;;8.10;99.90;;;;;;4995225;28;20504;-61
2022/02/26 10:19:30;;;;;;;7.28;1.80;;;8.20;99.90;;;;;;4996299;28;20450;-61
2022/02/26 10:21:59;;;;;;;5.97;1.52;;;8.40;99.90;;;;;;4998886;28;20056;-63
2022/02/26 10:24:28;;;;;;;5.85;1.95;;;8.50;99.90;;;;;;4988154;28;20081;-63
2022/02/26 10:27:00;;;;;;;5.35;1.60;;;8.60;99.90;;;;;;5000928;28;20069;-63
2022/02/26 10:29:27;;;;;;;5.15;1.58;;;8.60;99.90;;;;;;5003223;28;20263;-63
2022/02/26 10:31:57;;;;;;;5.07;1.63;;;8.70;99.90;;;;;;4992877;28;20439;-63
2022/02/26 10:34:24;;;;;;;6.00;2.25;;;8.70;99.90;;;;;;5007622;28;20436;-62
2022/02/26 10:36:57;;;;;;;4.85;1.70;;;8.80;99.90;;;;;;5009481;28;20409;-63
2022/02/26 10:39:44;;;;;;;2.35;1.45;;;8.90;99.90;;;;;;5002697;28;20054;-62
2022/02/26 10:42:17;;;;;;;4.68;1.98;;;9.10;99.90;;;;;;5000177;28;20157;-63
2022/02/26 10:44:44;;;;;;;7.65;2.70;;;9.10;99.90;;;;;;4998504;28;20553;-63
2022/02/26 10:47:14;;;;;;;5.45;2.33;;;9.20;99.90;;;;;;4982663;28;20084;-62
2022/02/26 10:49:43;;;;;;;4.90;1.50;;;9.10;99.90;;;;;;4977291;28;20629;-62
2022/02/26 10:52:10;;;;;;;4.40;1.65;;;9.20;99.90;;;;;;4977095;28;20156;-64
2022/02/26 10:54:38;;;;;;;4.70;2.33;;;9.20;99.90;;;;;;4993598;28;20058;-60
2022/02/26 10:57:06;;;;;;;6.50;2.05;;;9.20;99.90;;;;;;4987651;28;20608;-61
2022/02/26 10:59:34;;;;;;;5.03;1.63;;;9.20;99.90;;;;;;4990842;28;20057;-61
2022/02/26 11:02:22;;;;;;;3.92;1.55;;;9.20;99.90;;;;;;4991500;28;20053;-61
2022/02/26 11:04:50;;;;;;;4.72;1.65;;;9.20;99.90;;;;;;4996473;28;20474;-61
2022/02/26 11:07:16;;;;;;;4.75;1.60;;;9.20;99.90;;;;;;5009804;28;20073;-62
2022/02/26 11:09:52;;;;;;;6.00;1.88;;;9.20;99.90;;;;;;4998090;28;20134;-59
2022/02/26 11:12:20;;;;;;;5.22;1.77;;;9.30;99.90;;;;;;4999410;28;20078;-61
2022/02/26 11:14:51;;;;;;;4.30;1.50;;;9.40;99.90;;;;;;5004490;28;20528;-59
2022/02/26 11:17:18;;;;;;;4.32;1.90;;;9.40;99.90;;;;;;4978158;28;20141;-62
2022/02/26 11:19:45;;;;;;;4.95;1.58;;;9.50;99.90;;;;;;4989907;28;20066;-62
2022/02/26 11:22:12;;;;;;;3.85;1.58;;;9.70;99.90;;;;;;4990747;28;20137;-62
2022/02/26 11:24:39;;;;;;;6.43;2.00;;;9.90;99.90;;;;;;4975275;28;20088;-61
2022/02/26 11:27:06;;;;;;;4.07;1.30;;;10.10;99.90;;;;;;4987809;28;20679;-62
2022/02/26 11:29:33;;;;;;;5.57;1.48;;;10.20;99.90;;;;;;4985398;28;20129;-61
2022/02/26 11:32:05;;;;;;;3.40;1.15;;;10.30;99.90;;;;;;4979749;28;20140;-61
2022/02/26 11:34:34;;;;;;;3.47;1.63;;;10.40;99.90;;;;;;4998626;28;20049;-62
2022/02/26 11:37:16;;;;;;;3.00;1.67;;;10.60;99.90;;;;;;4996674;28;20084;-61
2022/02/26 11:39:48;;;;;;;5.78;1.67;;;10.70;99.90;;;;;;5009705;28;20152;-62
2022/02/26 11:42:23;;;;;;;4.03;1.30;;;10.90;99.90;;;;;;5014959;28;20228;-61
2022/02/26 11:45:02;;;;;;;5.93;1.33;;;11.00;99.90;;;;;;4987567;28;20197;-62
2022/02/26 11:47:56;;;;;;;4.18;1.60;;;11.30;99.90;;;;;;4993018;28;20077;-62
2022/02/26 11:50:39;;;;;;;;;;;11.40;99.90;;;;;;4996871;28;20420;-62
2022/02/26 11:53:19;;;;;;;5.82;1.33;;;11.40;99.90;;;;;;4998411;28;20040;-61
2022/02/26 11:55:50;;;;;;;4.30;1.63;;;11.50;99.90;;;;;;4998562;28;20144;-62
2022/02/26 11:58:38;;;;;;;5.10;1.55;;;11.60;99.90;;;;;;4997899;28;20152;-62
2022/02/26 12:01:12;;;;;;;4.72;1.88;;;11.90;99.90;;;;;;4997721;28;20415;-62
2022/02/26 12:03:40;;;;;;;3.85;1.40;;;12.00;99.90;;;;;;4997454;28;20464;-62
2022/02/26 12:06:07;;;;;;;3.08;1.35;;;12.20;99.90;;;;;;4998599;28;20148;-62
2022/02/26 12:08:44;;;;;;;3.85;1.38;;;12.30;99.90;;;;;;4998081;28;20148;-61
2022/02/26 12:11:32;;;;;;;4.47;1.55;;;12.50;99.90;;;;;;4998447;28;20122;-62
2022/02/26 12:14:00;;;;;;;4.90;1.60;;;12.60;99.90;;;;;;4991551;28;20145;-61
2022/02/26 12:16:37;;;;;;;4.82;1.30;;;12.80;99.90;;;;;;4997886;28;20081;-62
2022/02/26 12:19:07;;;;;;;7.18;1.10;;;12.90;99.90;;;;;;4997743;28;20498;-62
2022/02/26 12:21:47;;;;;;;4.68;1.92;;;13.00;99.90;;;;;;4980989;28;20478;-62
2022/02/26 12:24:30;;;;;;;3.33;1.50;;;13.00;99.90;;;;;;4997824;28;20144;-62
2022/02/26 12:27:04;;;;;;;3.20;1.30;;;13.20;99.90;;;;;;5001544;28;20537;-62
2022/02/26 12:29:40;;;;;;;3.58;1.45;;;13.40;99.90;;;;;;4999640;28;20343;-63
2022/02/26 12:32:14;;;;;;;4.55;1.73;;;13.50;99.90;;;;;;5000963;28;20543;-61
2022/02/26 12:34:51;;;;;;;3.83;1.50;;;13.30;99.90;;;;;;5000616;28;20049;-62
2022/02/26 12:37:19;;;;;;;4.20;1.85;;;13.30;99.90;;;;;;4994611;28;20145;-62
2022/02/26 12:39:50;;;;;;;3.88;1.70;;;13.50;99.90;;;;;;4997484;28;20462;-62
2022/02/26 12:42:18;;;;;;;5.65;1.50;;;13.40;99.90;;;;;;5001243;28;20149;-62
2022/02/26 12:44:45;;;;;;;4.55;1.90;;;13.60;99.90;;;;;;4998591;28;20758;-62
2022/02/26 12:47:12;;;;;;;2.42;1.40;;;13.80;99.90;;;;;;5001497;28;20124;-62
2022/02/26 12:49:38;;;;;;;4.07;1.63;;;14.10;99.90;;;;;;4999310;28;20646;-62
2022/02/26 12:52:06;;;;;;;3.42;1.52;;;14.10;99.90;;;;;;5001996;28;20143;-63
2022/02/26 12:54:35;;;;;;;3.33;1.35;;;14.30;99.90;;;;;;5000455;28;20049;-62
2022/02/26 12:57:02;;;;;;;6.20;2.00;;;14.50;99.90;;;;;;5001501;28;20657;-62
2022/02/26 12:59:30;;;;;;;3.40;1.60;;;14.60;99.80;;;;;;4997942;28;20116;-62